sensor_id;sensor_type;location;lat;lon;timestamp;P1;durP1;ratioP1;P2;durP2;ratioP2
71973;SDS011;59840;52.122;5.404;2022-10-22T06:26:16;7.70;;;1.85;;
71973;SDS011;59840;52.122;5.404;2022-10-22T08:07:59;7.55;;;1.92;;
71973;SDS011;59840;52.122;5.404;2022-10-22T08:10:25;4.85;;;1.20;;
71973;SDS011;59840;52.122;5.404;2022-10-22T12:50:52;5.43;;;0.80;;
71973;SDS011;59840;52.122;5.404;2022-10-22T12:53:28;8.52;;;1.15;;
71973;SDS011;59840;52.122;5.404;2022-10-22T12:56:33;3.88;;;0.63;;
71973;SDS011;59840;52.122;5.404;2022-10-22T12:59:01;7.83;;;0.67;;
71973;SDS011;59840;52.122;5.404;2022-10-22T13:34:21;5.23;;;1.17;;
71973;SDS011;59840;52.122;5.404;2022-10-22T13:48:44;5.28;;;1.20;;
71973;SDS011;59840;52.122;5.404;2022-10-22T14:11:12;5.73;;;1.03;;
71973;SDS011;59840;52.122;5.404;2022-10-22T14:24:31;7.88;;;1.85;;
71973;SDS011;59840;52.122;5.404;2022-10-22T15:03:37;5.07;;;1.23;;
71973;SDS011;59840;52.122;5.404;2022-10-22T15:22:00;7.93;;;1.60;;
71973;SDS011;59840;52.122;5.404;2022-10-22T15:40:01;6.30;;;1.10;;
71973;SDS011;59840;52.122;5.404;2022-10-22T15:42:28;9.02;;;1.40;;
71973;SDS011;59840;52.122;5.404;2022-10-22T15:44:58;3.45;;;1.33;;
71973;SDS011;59840;52.122;5.404;2022-10-22T15:47:25;4.25;;;1.30;;
71973;SDS011;59840;52.122;5.404;2022-10-22T15:49:54;6.78;;;1.77;;
71973;SDS011;59840;52.122;5.404;2022-10-22T15:52:21;8.23;;;1.73;;
71973;SDS011;59840;52.122;5.404;2022-10-22T15:54:47;6.18;;;1.50;;
71973;SDS011;59840;52.122;5.404;2022-10-22T15:57:14;9.98;;;1.88;;
71973;SDS011;59840;52.122;5.404;2022-10-22T15:59:40;3.33;;;1.60;;
71973;SDS011;59840;52.122;5.404;2022-10-22T16:02:08;7.65;;;1.70;;
71973;SDS011;59840;52.122;5.404;2022-10-22T16:04:36;7.10;;;1.53;;
71973;SDS011;59840;52.122;5.404;2022-10-22T16:07:03;8.57;;;1.90;;
71973;SDS011;59840;52.122;5.404;2022-10-22T16:12:29;7.15;;;1.13;;
71973;SDS011;59840;52.122;5.404;2022-10-22T16:14:55;6.60;;;1.08;;
71973;SDS011;59840;52.122;5.404;2022-10-22T18:41:31;12.73;;;7.78;;
71973;SDS011;59840;52.122;5.404;2022-10-22T18:43:59;9.90;;;6.70;;
71973;SDS011;59840;52.122;5.404;2022-10-22T18:46:27;8.00;;;6.07;;
71973;SDS011;59840;52.122;5.404;2022-10-22T18:49:01;6.65;;;3.60;;
71973;SDS011;59840;52.122;5.404;2022-10-22T18:51:28;4.82;;;2.88;;
71973;SDS011;59840;52.122;5.404;2022-10-22T18:53:59;2.90;;;1.48;;
71973;SDS011;59840;52.122;5.404;2022-10-22T18:56:47;4.53;;;2.57;;
71973;SDS011;59840;52.122;5.404;2022-10-22T18:59:15;4.18;;;3.20;;
71973;SDS011;59840;52.122;5.404;2022-10-22T19:01:54;4.88;;;3.45;;
71973;SDS011;59840;52.122;5.404;2022-10-22T19:04:22;11.75;;;3.70;;
71973;SDS011;59840;52.122;5.404;2022-10-22T19:06:49;8.15;;;2.95;;
71973;SDS011;59840;52.122;5.404;2022-10-22T19:09:16;4.47;;;2.00;;
71973;SDS011;59840;52.122;5.404;2022-10-22T19:11:43;2.47;;;1.60;;
71973;SDS011;59840;52.122;5.404;2022-10-22T19:17:03;2.30;;;1.50;;
71973;SDS011;59840;52.122;5.404;2022-10-22T19:19:30;2.08;;;1.20;;
71973;SDS011;59840;52.122;5.404;2022-10-22T19:21:56;3.10;;;1.30;;
71973;SDS011;59840;52.122;5.404;2022-10-22T19:24:24;2.90;;;1.42;;
71973;SDS011;59840;52.122;5.404;2022-10-22T19:26:51;5.30;;;1.70;;
71973;SDS011;59840;52.122;5.404;2022-10-22T19:44:26;8.63;;;3.17;;
71973;SDS011;59840;52.122;5.404;2022-10-22T19:46:53;9.98;;;3.65;;
71973;SDS011;59840;52.122;5.404;2022-10-22T19:53:14;4.60;;;3.20;;
71973;SDS011;59840;52.122;5.404;2022-10-22T19:55:41;4.25;;;2.95;;
71973;SDS011;59840;52.122;5.404;2022-10-22T19:58:10;3.55;;;2.22;;
71973;SDS011;59840;52.122;5.404;2022-10-22T20:00:37;9.52;;;2.80;;
71973;SDS011;59840;52.122;5.404;2022-10-22T20:03:04;4.65;;;2.63;;
71973;SDS011;59840;52.122;5.404;2022-10-22T20:05:30;7.30;;;3.50;;
71973;SDS011;59840;52.122;5.404;2022-10-22T20:07:57;7.03;;;4.00;;
71973;SDS011;59840;52.122;5.404;2022-10-22T20:10:24;5.00;;;3.80;;
71973;SDS011;59840;52.122;5.404;2022-10-22T20:23:40;5.22;;;4.30;;
71973;SDS011;59840;52.122;5.404;2022-10-22T20:26:08;8.45;;;5.28;;
71973;SDS011;59840;52.122;5.404;2022-10-22T20:28:35;10.52;;;4.65;;
71973;SDS011;59840;52.122;5.404;2022-10-22T20:31:09;9.40;;;5.22;;
71973;SDS011;59840;52.122;5.404;2022-10-22T20:33:38;6.40;;;3.90;;
71973;SDS011;59840;52.122;5.404;2022-10-22T20:36:10;5.80;;;3.97;;
71973;SDS011;59840;52.122;5.404;2022-10-22T20:38:39;7.15;;;4.50;;
71973;SDS011;59840;52.122;5.404;2022-10-22T20:41:12;10.40;;;5.72;;
71973;SDS011;59840;52.122;5.404;2022-10-22T20:43:42;8.50;;;5.68;;
71973;SDS011;59840;52.122;5.404;2022-10-22T20:46:15;5.67;;;5.17;;
71973;SDS011;59840;52.122;5.404;2022-10-22T20:48:50;10.85;;;6.90;;
71973;SDS011;59840;52.122;5.404;2022-10-22T20:51:18;10.10;;;6.30;;
71973;SDS011;59840;52.122;5.404;2022-10-22T20:53:45;9.70;;;7.03;;
71973;SDS011;59840;52.122;5.404;2022-10-22T20:56:11;10.48;;;6.18;;
71973;SDS011;59840;52.122;5.404;2022-10-22T20:58:39;10.40;;;6.23;;
71973;SDS011;59840;52.122;5.404;2022-10-22T21:01:11;12.30;;;8.57;;
71973;SDS011;59840;52.122;5.404;2022-10-22T21:03:43;15.13;;;9.25;;
71973;SDS011;59840;52.122;5.404;2022-10-22T21:06:11;17.08;;;8.93;;
71973;SDS011;59840;52.122;5.404;2022-10-22T21:08:37;14.60;;;8.68;;
71973;SDS011;59840;52.122;5.404;2022-10-22T21:11:04;13.37;;;8.77;;
71973;SDS011;59840;52.122;5.404;2022-10-22T21:13:31;11.52;;;8.02;;
71973;SDS011;59840;52.122;5.404;2022-10-22T21:16:06;9.85;;;8.07;;
71973;SDS011;59840;52.122;5.404;2022-10-22T21:21:37;14.25;;;8.15;;
71973;SDS011;59840;52.122;5.404;2022-10-22T21:24:04;9.67;;;6.30;;
71973;SDS011;59840;52.122;5.404;2022-10-22T21:29:20;9.32;;;6.00;;
71973;SDS011;59840;52.122;5.404;2022-10-22T21:31:46;7.85;;;4.82;;
71973;SDS011;59840;52.122;5.404;2022-10-22T21:34:16;6.70;;;4.78;;
71973;SDS011;59840;52.122;5.404;2022-10-22T21:39:28;7.85;;;4.50;;
71973;SDS011;59840;52.122;5.404;2022-10-22T21:41:55;8.43;;;5.10;;
71973;SDS011;59840;52.122;5.404;2022-10-22T21:44:22;7.38;;;4.70;;
71973;SDS011;59840;52.122;5.404;2022-10-22T21:46:48;10.40;;;4.80;;
71973;SDS011;59840;52.122;5.404;2022-10-22T21:49:15;6.43;;;4.47;;
71973;SDS011;59840;52.122;5.404;2022-10-22T21:58:20;9.60;;;3.78;;
71973;SDS011;59840;52.122;5.404;2022-10-22T22:00:48;9.25;;;4.72;;
71973;SDS011;59840;52.122;5.404;2022-10-22T22:03:19;6.40;;;4.63;;
71973;SDS011;59840;52.122;5.404;2022-10-22T22:05:46;12.27;;;5.25;;
71973;SDS011;59840;52.122;5.404;2022-10-22T22:08:13;8.77;;;5.35;;
71973;SDS011;59840;52.122;5.404;2022-10-22T22:10:41;9.52;;;4.85;;
71973;SDS011;59840;52.122;5.404;2022-10-22T22:13:08;13.98;;;5.25;;
71973;SDS011;59840;52.122;5.404;2022-10-22T22:15:34;10.23;;;4.67;;
71973;SDS011;59840;52.122;5.404;2022-10-22T22:18:01;8.55;;;4.50;;
71973;SDS011;59840;52.122;5.404;2022-10-22T22:20:27;8.38;;;4.80;;
71973;SDS011;59840;52.122;5.404;2022-10-22T22:22:54;6.18;;;4.03;;
71973;SDS011;59840;52.122;5.404;2022-10-22T22:25:20;7.75;;;4.40;;
71973;SDS011;59840;52.122;5.404;2022-10-22T22:27:47;6.50;;;4.27;;
71973;SDS011;59840;52.122;5.404;2022-10-22T22:30:14;7.43;;;4.25;;
71973;SDS011;59840;52.122;5.404;2022-10-22T22:32:40;8.35;;;4.40;;
71973;SDS011;59840;52.122;5.404;2022-10-22T22:35:07;11.93;;;5.20;;
71973;SDS011;59840;52.122;5.404;2022-10-22T22:37:34;9.80;;;5.78;;
71973;SDS011;59840;52.122;5.404;2022-10-22T22:40:01;11.00;;;5.80;;
71973;SDS011;59840;52.122;5.404;2022-10-22T22:42:27;12.40;;;5.47;;
71973;SDS011;59840;52.122;5.404;2022-10-22T22:48:38;9.60;;;5.40;;
71973;SDS011;59840;52.122;5.404;2022-10-22T22:51:06;8.73;;;5.38;;
71973;SDS011;59840;52.122;5.404;2022-10-22T22:53:33;11.73;;;5.83;;
71973;SDS011;59840;52.122;5.404;2022-10-22T23:03:54;11.02;;;5.50;;
71973;SDS011;59840;52.122;5.404;2022-10-22T23:06:26;8.40;;;5.80;;
71973;SDS011;59840;52.122;5.404;2022-10-22T23:08:55;6.47;;;5.23;;
71973;SDS011;59840;52.122;5.404;2022-10-22T23:11:22;9.60;;;5.65;;
71973;SDS011;59840;52.122;5.404;2022-10-22T23:13:51;9.65;;;6.43;;
71973;SDS011;59840;52.122;5.404;2022-10-22T23:16:20;11.55;;;6.72;;
71973;SDS011;59840;52.122;5.404;2022-10-22T23:18:47;9.70;;;5.45;;
71973;SDS011;59840;52.122;5.404;2022-10-22T23:21:15;9.87;;;5.50;;
71973;SDS011;59840;52.122;5.404;2022-10-22T23:23:44;13.15;;;6.60;;
71973;SDS011;59840;52.122;5.404;2022-10-22T23:26:12;9.60;;;6.47;;
71973;SDS011;59840;52.122;5.404;2022-10-22T23:28:40;13.50;;;7.18;;
71973;SDS011;59840;52.122;5.404;2022-10-22T23:31:06;13.85;;;6.85;;
71973;SDS011;59840;52.122;5.404;2022-10-22T23:33:35;12.50;;;6.80;;
71973;SDS011;59840;52.122;5.404;2022-10-22T23:36:02;12.45;;;7.20;;
71973;SDS011;59840;52.122;5.404;2022-10-22T23:38:32;11.45;;;6.47;;
71973;SDS011;59840;52.122;5.404;2022-10-22T23:40:59;11.13;;;6.70;;
71973;SDS011;59840;52.122;5.404;2022-10-22T23:43:26;12.82;;;6.80;;
71973;SDS011;59840;52.122;5.404;2022-10-22T23:45:54;9.30;;;6.63;;
71973;SDS011;59840;52.122;5.404;2022-10-22T23:48:21;8.95;;;6.25;;
71973;SDS011;59840;52.122;5.404;2022-10-22T23:50:48;10.40;;;5.57;;
71973;SDS011;59840;52.122;5.404;2022-10-22T23:53:14;13.73;;;5.47;;
71973;SDS011;59840;52.122;5.404;2022-10-22T23:55:41;10.52;;;6.80;;
71973;SDS011;59840;52.122;5.404;2022-10-22T23:58:09;15.27;;;8.97;;
